Time;durP1;ratioP1;P1;durP2;ratioP2;P2;SDS_P1;SDS_P2;PMS_P1;PMS_P2;Temp;Humidity;BMP_temperature;BMP_pressure;BME280_temperature;BME280_humidity;BME280_pressure;Samples;Min_cycle;Max_cycle;Signal;HPM_P1;HPM_P2
2022/12/09 00:01:20;;;;;;;35.72;18.15;;;;;;;1.80;100.00;100761.41;6281289;22;20016;-78
2022/12/09 00:03:47;;;;;;;32.08;15.48;;;;;;;1.80;100.00;100764.03;6254471;22;20511;-76
2022/12/09 00:06:19;;;;;;;30.65;17.73;;;;;;;1.82;100.00;100770.41;6281151;22;20479;-78
2022/12/09 00:08:47;;;;;;;30.45;17.30;;;;;;;1.84;100.00;100762.91;6281523;22;20017;-76
2022/12/09 00:11:13;;;;;;;29.52;16.58;;;;;;;1.86;100.00;100765.16;6281809;22;20476;-78
2022/12/09 00:13:40;;;;;;;26.58;16.88;;;;;;;1.86;100.00;100765.91;6281405;22;20027;-78
2022/12/09 00:16:10;;;;;;;29.63;16.02;;;;;;;1.89;100.00;100759.91;6281568;22;20020;-78
2022/12/09 00:18:37;;;;;;;30.35;16.80;;;;;;;1.90;100.00;100761.41;6281350;22;20021;-78
2022/12/09 00:21:18;;;;;;;35.33;15.80;;;;;;;1.90;100.00;100761.41;6228578;22;20048;-79
2022/12/09 00:23:45;;;;;;;24.30;14.18;;;;;;;1.86;100.00;100759.91;6253934;22;20075;-78
2022/12/09 00:26:12;;;;;;;22.33;13.75;;;;;;;1.87;100.00;100761.41;6281676;22;20020;-79
2022/12/09 00:28:39;;;;;;;27.77;13.88;;;;;;;1.81;100.00;100761.03;6281239;22;20023;-79
2022/12/09 00:31:06;;;;;;;22.40;12.98;;;;;;;1.83;100.00;100761.41;6281683;22;20460;-78
2022/12/09 00:33:34;;;;;;;23.67;13.68;;;;;;;1.84;100.00;100764.78;6254080;22;20107;-78
2022/12/09 00:36:10;;;;;;;25.98;14.52;;;;;;;1.84;100.00;100762.91;6253915;22;20378;-78
2022/12/09 00:38:37;;;;;;;21.90;13.35;;;;;;;1.84;100.00;100762.16;6281318;22;20066;-78
2022/12/09 00:41:04;;;;;;;26.30;14.40;;;;;;;1.84;100.00;100759.53;6254044;22;20020;-78
2022/12/09 00:43:32;;;;;;;23.33;11.90;;;;;;;1.83;100.00;100763.28;6254561;22;20016;-78
2022/12/09 00:46:02;;;;;;;21.33;12.85;;;;;;;1.83;100.00;100768.53;6253528;22;20350;-79
2022/12/09 00:48:29;;;;;;;20.17;11.82;;;;;;;1.80;100.00;100769.28;6281071;22;20409;-78
2022/12/09 00:50:57;;;;;;;20.67;12.77;;;;;;;1.82;100.00;100772.28;6253579;22;20047;-79
2022/12/09 00:53:25;;;;;;;20.42;13.00;;;;;;;1.82;100.00;100773.03;6281690;22;20023;-78
2022/12/09 00:55:52;;;;;;;17.83;12.13;;;;;;;1.84;100.00;100773.41;6279237;22;20508;-78
2022/12/09 00:58:19;;;;;;;19.10;12.70;;;;;;;1.84;100.00;100770.03;6254051;22;20143;-77
2022/12/09 01:00:45;;;;;;;23.67;12.98;;;;;;;1.84;100.00;100777.91;6281031;22;20446;-78
2022/12/09 01:03:13;;;;;;;21.83;13.45;;;;;;;1.83;100.00;100773.78;6280928;22;20055;-77
2022/12/09 01:05:40;;;;;;;22.23;11.63;;;;;;;1.82;100.00;100775.66;6280859;22;20013;-77
2022/12/09 01:08:08;;;;;;;18.65;11.52;;;;;;;1.82;100.00;100770.41;6253462;22;20107;-78
2022/12/09 01:10:38;;;;;;;20.63;12.18;;;;;;;1.81;100.00;100771.53;6254364;22;20453;-77
2022/12/09 01:13:05;;;;;;;19.80;12.10;;;;;;;1.78;100.00;100771.53;6253871;22;20107;-77
2022/12/09 01:15:31;;;;;;;21.10;12.23;;;;;;;1.74;100.00;100765.56;6281265;22;20456;-78
2022/12/09 01:17:58;;;;;;;25.05;12.68;;;;;;;1.71;99.98;100772.31;6252978;22;20475;-77
2022/12/09 01:20:25;;;;;;;23.27;11.98;;;;;;;1.65;100.00;100771.94;6281344;22;20016;-78
2022/12/09 01:22:51;;;;;;;19.10;12.05;;;;;;;1.59;100.00;100770.09;6280960;22;20018;-78
2022/12/09 01:25:18;;;;;;;20.90;12.00;;;;;;;1.53;100.00;100769.72;6253669;22;20361;-77
2022/12/09 01:27:45;;;;;;;23.05;12.60;;;;;;;1.46;100.00;100772.34;6253622;22;20027;-77
2022/12/09 01:30:13;;;;;;;21.55;12.65;;;;;;;1.40;100.00;100768.59;6253912;22;20048;-77
2022/12/09 01:32:40;;;;;;;25.95;13.35;;;;;;;1.32;100.00;100777.59;6280510;22;20485;-77
2022/12/09 01:35:08;;;;;;;21.67;12.13;;;;;;;1.16;99.19;100772.72;6228595;22;20027;-77
2022/12/09 01:37:35;;;;;;;21.80;12.43;;;;;;;1.05;99.17;100768.59;6253751;22;20368;-77
2022/12/09 01:40:09;;;;;;;21.52;11.98;;;;;;;0.96;99.63;100772.31;6253698;22;20020;-77
2022/12/09 01:42:36;;;;;;;23.83;12.98;;;;;;;0.88;99.23;100777.91;6253657;22;20016;-77
2022/12/09 01:45:18;;;;;;;26.77;13.70;;;;;;;0.84;99.89;100774.53;6280778;22;20087;-77
2022/12/09 01:47:47;;;;;;;20.63;11.77;;;;;;;0.91;100.00;100772.69;6252820;22;20115;-77
2022/12/09 01:50:15;;;;;;;21.83;12.02;;;;;;;0.97;100.00;100778.31;6253659;22;20035;-77
2022/12/09 01:52:44;;;;;;;19.15;11.40;;;;;;;1.01;100.00;100779.06;6281172;22;20035;-77
2022/12/09 01:55:11;;;;;;;24.55;11.85;;;;;;;1.02;100.00;100779.81;6281385;22;20013;-76
2022/12/09 01:57:38;;;;;;;23.65;12.23;;;;;;;0.99;100.00;100782.06;6253216;22;20434;-77
2022/12/09 02:00:06;;;;;;;21.80;11.85;;;;;;;0.95;100.00;100788.41;6253733;22;20016;-77
2022/12/09 02:02:45;;;;;;;21.42;12.50;;;;;;;0.89;100.00;100785.41;6255544;22;20024;-77
2022/12/09 02:05:14;;;;;;;25.52;12.35;;;;;;;0.87;100.00;100789.53;6226891;22;20056;-77
2022/12/09 02:07:45;;;;;;;23.35;12.80;;;;;;;0.84;100.00;100780.53;6250802;22;20020;-75
2022/12/09 02:10:16;;;;;;;23.75;12.82;;;;;;;0.86;100.00;100782.78;6252210;22;20012;-76
2022/12/09 02:13:18;;;;;;;19.70;11.82;;;;;;;0.90;100.00;100773.81;6253452;22;20107;-76
2022/12/09 02:15:49;;;;;;;;;;;;;;;0.92;100.00;100771.56;6251915;22;20103;-75
2022/12/09 02:18:35;;;;;;;21.70;10.88;;;;;;;0.93;100.00;100770.44;6252681;22;19935;-75
2022/12/09 02:21:17;;;;;;;23.67;12.38;;;;;;;0.92;100.00;100768.94;6253325;22;20021;-75
2022/12/09 02:23:52;;;;;;;20.67;11.88;;;;;;;0.93;100.00;100770.44;6253197;22;20429;-75
2022/12/09 02:26:29;;;;;;;19.77;11.50;;;;;;;0.95;100.00;100770.81;6253782;22;20023;-75
2022/12/09 02:29:31;;;;;;;23.65;12.45;;;;;;;0.96;100.00;100766.31;6280694;22;20509;-76
2022/12/09 02:31:58;;;;;;;;;;;;;;;0.93;100.00;100761.81;6251435;22;20027;-75
2022/12/09 02:34:32;;;;;;;20.95;10.73;;;;;;;0.82;100.00;100758.44;6281047;22;19927;-76
2022/12/09 02:37:23;;;;;;;18.38;11.13;;;;;;;0.80;100.00;100761.41;6280945;22;20393;-76
2022/12/09 02:39:58;;;;;;;24.77;11.20;;;;;;;0.71;100.00;100757.69;6280475;22;20462;-75
2022/12/09 02:42:31;;;;;;;23.23;11.75;;;;;;;0.66;100.00;100762.16;6253640;22;20016;-75
2022/12/09 02:45:04;;;;;;;26.77;12.32;;;;;;;0.61;100.00;100762.50;6279800;22;20087;-76
2022/12/09 02:47:35;;;;;;;23.37;12.67;;;;;;;0.50;100.00;100758.34;6253728;22;20020;-75
2022/12/09 02:50:06;;;;;;;20.80;11.75;;;;;;;0.43;100.00;100758.34;6253550;22;20459;-75
2022/12/09 02:52:34;;;;;;;;;;;;;;;0.40;100.00;100764.34;6254176;22;20038;-76
2022/12/09 02:55:08;;;;;;;18.02;9.98;;;;;;;0.33;100.00;100757.94;6281100;22;19942;-75
2022/12/09 02:57:37;;;;;;;21.33;10.95;;;;;;;0.30;100.00;100761.31;6253333;22;20027;-75
2022/12/09 03:00:07;;;;;;;21.20;10.83;;;;;;;0.21;100.00;100753.03;6252926;22;20032;-76
2022/12/09 03:02:43;;;;;;;21.20;10.95;;;;;;;0.14;100.00;100762.72;6278768;22;20243;-75
2022/12/09 03:05:22;;;;;;;20.33;11.30;;;;;;;0.08;100.00;100756.31;6280728;22;20438;-75
2022/12/09 03:07:59;;;;;;;18.98;10.93;;;;;;;-0.01;100.00;100749.56;6253478;22;20438;-75
2022/12/09 03:10:35;;;;;;;18.30;10.57;;;;;;;-0.02;100.00;100750.69;6253386;22;20370;-75
2022/12/09 03:13:15;;;;;;;18.65;10.32;;;;;;;-0.04;100.00;100749.56;6280436;22;20420;-75
2022/12/09 03:15:48;;;;;;;20.15;10.13;;;;;;;-0.08;100.00;100739.06;6280232;22;20012;-75
2022/12/09 03:18:19;;;;;;;19.85;11.05;;;;;;;-0.13;100.00;100739.41;6280381;22;20012;-76
2022/12/09 03:20:49;;;;;;;18.77;11.02;;;;;;;-0.15;100.00;100736.41;6280147;22;20082;-76
2022/12/09 03:23:19;;;;;;;23.23;11.30;;;;;;;-0.15;100.00;100738.28;6280175;22;20440;-75
2022/12/09 03:25:49;;;;;;;17.80;10.18;;;;;;;-0.24;100.00;100738.59;6279870;22;20016;-75
2022/12/09 03:28:22;;;;;;;21.55;11.18;;;;;;;-0.29;100.00;100738.19;6279620;22;20445;-76
2022/12/09 03:30:50;;;;;;;18.45;10.52;;;;;;;-0.28;100.00;100747.53;6280173;22;20021;-76
2022/12/09 03:33:19;;;;;;;18.85;10.35;;;;;;;-0.27;100.00;100734.09;6281606;22;20424;-75
2022/12/09 03:35:52;;;;;;;21.63;10.90;;;;;;;-0.25;100.00;100736.34;6281245;22;20008;-76
2022/12/09 03:38:21;;;;;;;20.98;11.32;;;;;;;-0.27;100.00;100735.97;6281920;22;20016;-76
2022/12/09 03:40:59;;;;;;;21.63;10.63;;;;;;;-0.30;100.00;100729.59;6281552;22;20102;-76
2022/12/09 03:43:33;;;;;;;19.70;10.85;;;;;;;-0.29;100.00;100723.25;6281553;22;20051;-76
2022/12/09 03:46:00;;;;;;;18.33;10.55;;;;;;;-0.29;100.00;100733.72;6281097;22;20434;-76
2022/12/09 03:48:27;;;;;;;20.05;10.52;;;;;;;-0.34;100.00;100732.19;6254080;22;20012;-76
2022/12/09 03:51:04;;;;;;;17.58;10.80;;;;;;;-0.38;100.00;100731.41;6254318;22;20019;-76
2022/12/09 03:54:05;;;;;;;18.00;10.20;;;;;;;-0.39;100.00;100727.28;6281801;22;20090;-76
2022/12/09 03:56:38;;;;;;;19.15;10.23;;;;;;;-0.47;100.00;100725.03;6276994;22;20024;-76
2022/12/09 03:59:10;;;;;;;25.02;12.02;;;;;;;-0.52;100.00;100723.50;6253603;22;20017;-75
2022/12/09 04:01:39;;;;;;;19.05;10.25;;;;;;;-0.53;100.00;100729.84;6281211;22;20464;-76
2022/12/09 04:04:07;;;;;;;21.88;10.52;;;;;;;-0.54;100.00;100727.59;6281457;22;20070;-75
2022/12/09 04:06:35;;;;;;;19.42;10.32;;;;;;;-0.58;100.00;100727.56;6281630;22;20019;-76
2022/12/09 04:09:03;;;;;;;20.70;12.05;;;;;;;-0.57;100.00;100718.59;6254138;22;20020;-76
2022/12/09 04:11:33;;;;;;;18.58;10.52;;;;;;;-0.57;100.00;100725.69;6281081;22;20016;-76
2022/12/09 04:13:59;;;;;;;19.92;10.95;;;;;;;-0.56;100.00;100725.34;6254082;22;20016;-76
2022/12/09 04:16:26;;;;;;;17.52;9.90;;;;;;;-0.58;100.00;100721.56;6281444;22;20016;-76
2022/12/09 04:18:53;;;;;;;21.10;11.13;;;;;;;-0.59;100.00;100718.22;6281023;22;20016;-76
2022/12/09 04:21:20;;;;;;;17.80;10.45;;;;;;;-0.58;100.00;100713.72;6281563;22;20079;-76
2022/12/09 04:23:46;;;;;;;17.80;10.52;;;;;;;-0.58;100.00;100716.34;6281545;22;20051;-77
2022/12/09 04:26:16;;;;;;;18.13;10.35;;;;;;;-0.61;100.00;100717.81;6281089;22;20020;-76
2022/12/09 04:28:43;;;;;;;17.85;10.20;;;;;;;-0.62;100.00;100712.94;6281098;22;20066;-77
2022/12/09 04:31:11;;;;;;;17.45;10.13;;;;;;;-0.65;100.00;100706.59;6254570;22;20021;-77
2022/12/09 04:33:39;;;;;;;23.33;11.23;;;;;;;-0.72;100.00;100715.13;6281221;22;20044;-77
2022/12/09 04:36:09;;;;;;;16.25;10.02;;;;;;;-0.72;100.00;100709.16;6281334;22;20165;-77
2022/12/09 04:38:36;;;;;;;21.63;10.25;;;;;;;-0.77;100.00;100710.22;6281355;22;20019;-77
2022/12/09 04:41:03;;;;;;;17.95;10.27;;;;;;;-0.76;100.00;100721.44;6253484;22;20026;-78
2022/12/09 04:43:30;;;;;;;18.75;9.93;;;;;;;-0.77;100.00;100715.47;6281567;22;20120;-76
2022/12/09 04:46:02;;;;;;;18.67;10.40;;;;;;;-0.79;100.00;100716.94;6281401;22;20016;-77
2022/12/09 04:48:29;;;;;;;17.58;9.70;;;;;;;-0.82;100.00;100718.44;6254852;22;20030;-77
2022/12/09 04:50:55;;;;;;;20.80;10.45;;;;;;;-0.80;100.00;100710.94;6254545;22;20091;-77
2022/12/09 04:53:22;;;;;;;17.23;9.57;;;;;;;-0.81;100.00;100712.09;6256128;22;20354;-77
2022/12/09 04:55:57;;;;;;;16.15;9.45;;;;;;;-0.80;100.00;100712.84;6282837;22;20446;-77
2022/12/09 04:58:24;;;;;;;16.70;9.65;;;;;;;-0.81;100.00;100716.56;6255390;22;20059;-77
2022/12/09 05:00:50;;;;;;;16.08;9.10;;;;;;;-0.84;100.00;100712.06;6281390;22;20020;-77
2022/12/09 05:03:17;;;;;;;18.10;9.68;;;;;;;-0.87;100.00;100713.53;6281631;22;20400;-76
2022/12/09 05:05:44;;;;;;;14.93;9.45;;;;;;;-0.88;100.00;100716.50;6253941;22;20020;-76
2022/12/09 05:08:11;;;;;;;17.13;9.38;;;;;;;-0.87;100.00;100705.69;6281541;22;20020;-76
2022/12/09 05:10:38;;;;;;;21.00;10.77;;;;;;;-0.85;100.00;100715.78;6227739;22;20104;-77
2022/12/09 05:13:05;;;;;;;16.83;9.63;;;;;;;-0.87;100.00;100707.56;6281251;22;20019;-76
2022/12/09 05:15:32;;;;;;;18.48;10.95;;;;;;;-0.89;100.00;100717.63;6254534;22;20016;-77
2022/12/09 05:18:01;;;;;;;18.52;9.88;;;;;;;-0.89;100.00;100717.63;6253367;22;20023;-77
2022/12/09 05:20:28;;;;;;;22.95;10.85;;;;;;;-0.84;100.00;100719.91;6228593;22;20020;-77
2022/12/09 05:22:55;;;;;;;27.13;11.77;;;;;;;-0.80;100.00;100725.91;6280828;22;20042;-77
2022/12/09 05:25:22;;;;;;;25.17;12.18;;;;;;;-0.77;100.00;100725.16;6280551;22;20024;-77
2022/12/09 05:27:49;;;;;;;32.60;12.85;;;;;;;-0.75;100.00;100720.31;6280812;22;20488;-76
2022/12/09 05:30:16;;;;;;;31.75;12.13;;;;;;;-0.77;100.00;100719.94;6281122;22;20023;-77
2022/12/09 05:32:43;;;;;;;28.67;12.35;;;;;;;-0.75;100.00;100720.31;6280867;22;20012;-77
2022/12/09 05:35:10;;;;;;;41.03;12.90;;;;;;;-0.72;100.00;100711.75;6281189;22;20448;-77
2022/12/09 05:37:36;;;;;;;48.78;13.93;;;;;;;-0.71;100.00;100710.66;6280819;22;20016;-77
2022/12/09 05:40:04;;;;;;;34.78;13.25;;;;;;;-0.73;100.00;100710.25;6280755;22;20016;-75
2022/12/09 05:42:32;;;;;;;43.83;15.57;;;;;;;-0.72;100.00;100712.50;6281105;22;20012;-76
2022/12/09 05:45:06;;;;;;;38.85;16.15;;;;;;;-0.73;100.00;100710.25;6281006;22;20016;-76
2022/12/09 05:47:33;;;;;;;33.40;14.18;;;;;;;-0.74;100.00;100711.38;6253684;22;20051;-76
2022/12/09 05:50:00;;;;;;;37.30;13.88;;;;;;;-0.74;100.00;100711.38;6281226;22;20540;-76
2022/12/09 05:52:35;;;;;;;36.30;14.02;;;;;;;-0.71;100.00;100715.88;6253924;22;20020;-76
2022/12/09 05:55:04;;;;;;;32.58;12.57;;;;;;;-0.71;100.00;100716.63;6280438;22;20044;-76
2022/12/09 05:57:33;;;;;;;28.58;12.10;;;;;;;-0.70;100.00;100717.38;6281335;22;20016;-76
2022/12/09 06:00:00;;;;;;;31.77;12.85;;;;;;;-0.72;100.00;100722.97;6280914;22;20024;-76
2022/12/09 06:02:37;;;;;;;29.50;10.95;;;;;;;-0.73;100.00;100713.63;6280775;22;20024;-76
2022/12/09 06:05:05;;;;;;;22.83;11.40;;;;;;;-0.72;100.00;100711.75;6281190;22;20013;-76
2022/12/09 06:07:33;;;;;;;21.88;11.32;;;;;;;-0.73;100.00;100715.47;6280400;22;20476;-75
2022/12/09 06:10:01;;;;;;;22.17;11.50;;;;;;;-0.72;100.00;100715.13;6253541;22;20055;-76
2022/12/09 06:12:28;;;;;;;28.00;12.65;;;;;;;-0.71;100.00;100711.41;6281144;22;20063;-76
2022/12/09 06:14:55;;;;;;;80.38;13.65;;;;;;;-0.71;100.00;100711.41;6280795;22;20023;-76
2022/12/09 06:17:22;;;;;;;31.00;13.40;;;;;;;-0.70;100.00;100712.91;6254104;22;20051;-76
2022/12/09 06:19:49;;;;;;;37.45;15.18;;;;;;;-0.68;100.00;100708.06;6253671;22;20481;-76
2022/12/09 06:22:15;;;;;;;27.35;12.93;;;;;;;-0.64;100.00;100717.78;6253110;22;20023;-76
2022/12/09 06:24:42;;;;;;;34.42;14.45;;;;;;;-0.62;100.00;100705.13;6253372;22;20067;-76
2022/12/09 06:27:09;;;;;;;29.15;13.20;;;;;;;-0.66;100.00;100707.69;6253555;22;20020;-76
2022/12/09 06:29:36;;;;;;;28.63;13.15;;;;;;;-0.69;100.00;100709.16;6280876;22;20125;-76
2022/12/09 06:32:03;;;;;;;28.60;13.25;;;;;;;-0.67;100.00;100720.03;6253635;22;20016;-76
2022/12/09 06:34:30;;;;;;;59.72;13.85;;;;;;;-0.69;100.00;100714.41;6281450;22;20399;-76
2022/12/09 06:36:57;;;;;;;29.67;13.68;;;;;;;-0.67;100.00;100720.03;6252622;22;20027;-76
2022/12/09 06:39:23;;;;;;;30.70;13.52;;;;;;;-0.63;100.00;100724.53;6281225;22;20070;-75
2022/12/09 06:41:50;;;;;;;40.30;15.52;;;;;;;-0.60;100.00;100721.19;6280622;22;20026;-76
2022/12/09 06:44:17;;;;;;;46.83;14.98;;;;;;;-0.60;100.00;100724.56;6281037;22;20178;-76
2022/12/09 06:46:49;;;;;;;52.40;15.77;;;;;;;-0.58;100.00;100721.56;6279903;22;20008;-76
2022/12/09 06:49:16;;;;;;;98.95;15.20;;;;;;;-0.54;100.00;100724.97;6280735;22;20016;-76
2022/12/09 06:51:43;;;;;;;35.70;14.80;;;;;;;-0.54;100.00;100723.09;6252457;22;20416;-76
2022/12/09 06:54:11;;;;;;;69.25;14.63;;;;;;;-0.51;100.00;100719.00;6253910;22;20492;-76
2022/12/09 06:56:38;;;;;;;62.95;15.02;;;;;;;-0.50;100.00;100718.66;6253385;22;20079;-77
2022/12/09 06:59:07;;;;;;;32.20;14.57;;;;;;;-0.52;100.00;100717.50;6281194;22;20442;-77
2022/12/09 07:01:35;;;;;;;89.03;17.38;;;;;;;-0.48;100.00;100718.28;6254032;22;20082;-76
2022/12/09 07:04:04;;;;;;;55.15;16.67;;;;;;;-0.51;100.00;100725.00;6281162;22;20020;-76
2022/12/09 07:06:39;;;;;;;98.88;17.42;;;;;;;-0.55;100.00;100726.09;6283337;22;20374;-76
2022/12/09 07:09:12;;;;;;;55.65;14.85;;;;;;;-0.60;100.00;100729.78;6285222;22;20428;-76
2022/12/09 07:11:41;;;;;;;62.45;15.23;;;;;;;-0.60;100.00;100729.78;6285041;22;20018;-76
2022/12/09 07:14:08;;;;;;;62.08;15.93;;;;;;;-0.57;100.00;100728.31;6284472;22;20091;-76
2022/12/09 07:16:36;;;;;;;109.32;16.77;;;;;;;-0.58;100.00;100724.19;6256373;22;20103;-76
2022/12/09 07:19:03;;;;;;;108.05;15.68;;;;;;;-0.65;100.00;100732.72;6231598;22;20540;-77
2022/12/09 07:21:31;;;;;;;93.15;16.60;;;;;;;-0.65;100.00;100726.75;6255792;22;20016;-79
2022/12/09 07:24:00;;;;;;;60.83;15.30;;;;;;;-0.65;100.00;100737.22;6256402;22;20020;-78
2022/12/09 07:26:31;;;;;;;46.08;16.45;;;;;;;-0.64;100.00;100736.84;6284208;22;20426;-77
2022/12/09 07:29:01;;;;;;;60.63;17.35;;;;;;;-0.61;100.00;100736.13;6257156;22;20020;-78
2022/12/09 07:31:28;;;;;;;42.05;16.80;;;;;;;-0.60;100.00;100745.47;6284866;22;20012;-78
2022/12/09 07:33:57;;;;;;;61.83;16.45;;;;;;;-0.57;100.00;100747.38;6257291;22;20083;-78
2022/12/09 07:36:26;;;;;;;63.65;15.70;;;;;;;-0.59;100.00;100741.75;6256234;22;20016;-78
2022/12/09 07:38:58;;;;;;;44.58;13.18;;;;;;;-0.63;100.00;100738.34;6255927;22;20020;-78
2022/12/09 07:41:26;;;;;;;57.95;14.90;;;;;;;-0.60;100.00;100737.63;6283430;22;20819;-78
2022/12/09 07:43:53;;;;;;;54.40;15.50;;;;;;;-0.61;100.00;100730.91;6283742;22;20012;-76
2022/12/09 07:46:22;;;;;;;75.38;16.42;;;;;;;-0.59;100.00;100731.28;6256740;22;20059;-77
2022/12/09 07:48:48;;;;;;;65.78;17.50;;;;;;;-0.60;100.00;100718.56;6284145;22;20370;-77
2022/12/09 07:51:16;;;;;;;113.25;19.20;;;;;;;-0.63;100.00;100725.28;6257310;22;20024;-77
2022/12/09 07:53:43;;;;;;;89.30;17.63;;;;;;;-0.63;100.00;100725.28;6284754;22;20016;-76
2022/12/09 07:56:13;;;;;;;64.85;15.30;;;;;;;-0.60;100.00;100727.16;6284515;22;20519;-80
2022/12/09 07:58:41;;;;;;;97.95;14.85;;;;;;;-0.59;100.00;100728.66;6284556;22;20519;-77
2022/12/09 08:01:16;;;;;;;61.90;13.40;;;;;;;-0.58;100.00;100732.03;6257573;22;20012;-79
2022/12/09 08:03:43;;;;;;;46.08;12.32;;;;;;;-0.57;100.00;100734.28;6284621;22;20012;-80
2022/12/09 08:06:12;;;;;;;123.60;13.13;;;;;;;-0.59;100.00;100736.50;6284912;22;20201;-79
2022/12/09 08:08:39;;;;;;;132.05;12.85;;;;;;;-0.62;100.00;100726.78;6258080;22;20003;-79
2022/12/09 08:11:12;;;;;;;40.80;11.88;;;;;;;-0.61;100.00;100730.91;6257674;22;20012;-79
2022/12/09 08:13:40;;;;;;;81.30;11.23;;;;;;;-0.59;100.00;100733.16;6257285;22;20062;-79
2022/12/09 08:16:10;;;;;;;36.90;11.18;;;;;;;-0.53;100.00;100731.69;6284454;22;20017;-78
2022/12/09 08:18:37;;;;;;;29.15;10.50;;;;;;;-0.50;100.00;100736.22;6255072;22;20091;-78
2022/12/09 08:21:19;;;;;;;48.47;11.30;;;;;;;-0.49;100.00;100737.72;6282648;22;20017;-79
2022/12/09 08:23:47;;;;;;;20.20;10.20;;;;;;;-0.50;100.00;100738.81;6282976;22;20017;-75
2022/12/09 08:26:16;;;;;;;78.80;12.43;;;;;;;-0.49;100.00;100740.31;6282465;22;20398;-76
2022/12/09 08:28:43;;;;;;;28.65;10.98;;;;;;;-0.48;100.00;100739.22;6282694;22;20083;-75
2022/12/09 08:31:13;;;;;;;29.05;10.85;;;;;;;-0.47;100.00;100735.47;6282498;22;20018;-78
2022/12/09 08:33:41;;;;;;;20.35;10.50;;;;;;;-0.43;100.00;100736.25;6254643;22;20016;-78
2022/12/09 08:36:14;;;;;;;17.70;10.35;;;;;;;-0.46;100.00;100727.28;6282468;22;20012;-78
2022/12/09 08:38:41;;;;;;;31.77;11.15;;;;;;;-0.44;100.00;100732.88;6282651;22;20024;-78
2022/12/09 08:41:20;;;;;;;27.83;12.23;;;;;;;-0.45;100.00;100726.16;6282483;22;20195;-77
2022/12/09 08:43:47;;;;;;;36.83;14.73;;;;;;;-0.47;100.00;100732.88;6254885;22;20020;-77
2022/12/09 08:46:14;;;;;;;48.90;14.38;;;;;;;-0.48;100.00;100729.50;6281895;22;20065;-77
2022/12/09 08:48:41;;;;;;;79.38;16.42;;;;;;;-0.51;100.00;100732.84;6281811;22;20012;-77
2022/12/09 08:51:10;;;;;;;65.28;15.70;;;;;;;-0.51;100.00;100738.06;6282426;22;20012;-76
2022/12/09 08:53:38;;;;;;;36.67;13.70;;;;;;;-0.53;100.00;100740.28;6281279;22;20429;-76
2022/12/09 08:56:11;;;;;;;30.92;13.35;;;;;;;-0.53;100.00;100735.06;6282123;22;20016;-75
2022/12/09 08:58:40;;;;;;;30.02;11.77;;;;;;;-0.50;100.00;100738.81;6282043;22;20020;-76
2022/12/09 09:01:13;;;;;;;45.58;11.82;;;;;;;-0.47;100.00;100735.47;6281969;22;20032;-75
2022/12/09 09:03:41;;;;;;;40.67;11.00;;;;;;;-0.42;100.00;100740.38;6282507;22;20047;-77
2022/12/09 09:06:09;;;;;;;21.15;10.07;;;;;;;-0.42;100.00;100741.13;6282020;22;20016;-76
2022/12/09 09:08:37;;;;;;;52.08;10.68;;;;;;;-0.42;100.00;100741.13;6255757;22;20087;-76
2022/12/09 09:11:14;;;;;;;31.90;9.68;;;;;;;-0.43;100.00;100741.50;6282762;22;20768;-77
2022/12/09 09:13:43;;;;;;;55.15;9.85;;;;;;;-0.42;100.00;100743.00;6284009;22;20066;-77
2022/12/09 09:16:12;;;;;;;31.98;8.60;;;;;;;-0.41;100.00;100749.72;6257625;22;20048;-76
2022/12/09 09:18:39;;;;;;;91.03;10.00;;;;;;;-0.42;100.00;100748.97;6285594;22;20028;-76
2022/12/09 09:21:08;;;;;;;54.60;9.68;;;;;;;-0.45;100.00;100748.94;6258288;22;20012;-77
2022/12/09 09:23:35;;;;;;;55.25;9.50;;;;;;;-0.44;100.00;100748.59;6288982;22;20017;-76
2022/12/09 09:26:14;;;;;;;131.32;9.75;;;;;;;-0.54;100.00;100744.03;6286117;22;20430;-76
2022/12/09 09:28:42;;;;;;;81.18;8.95;;;;;;;-0.63;100.00;100761.88;6259689;22;20024;-77
2022/12/09 09:31:11;;;;;;;32.17;10.38;;;;;;;-0.75;100.00;100756.94;6285925;22;20409;-76
2022/12/09 09:33:39;;;;;;;89.45;10.32;;;;;;;-0.76;100.00;100765.88;6285266;22;20012;-76
2022/12/09 09:36:10;;;;;;;76.10;10.60;;;;;;;-0.72;100.00;100764.03;6283001;22;20112;-76
2022/12/09 09:38:37;;;;;;;40.47;9.48;;;;;;;-0.71;100.00;100768.91;6255622;22;20031;-75
2022/12/09 09:41:44;;;;;;;71.97;11.52;;;;;;;-0.65;100.00;100758.88;6282469;22;20082;-77
2022/12/09 09:44:29;;;;;;;86.15;11.98;;;;;;;-0.59;100.00;100772.38;6254536;22;20726;-77
2022/12/09 09:46:56;;;;;;;27.00;10.93;;;;;;;-0.60;100.00;100771.63;6253922;22;20429;-78
2022/12/09 09:49:39;;;;;;;58.72;11.43;;;;;;;-0.54;100.00;100766.81;6282613;22;20087;-77
2022/12/09 09:52:09;;;;;;;;;;;;;;;-0.53;100.00;100763.09;6282527;22;20013;-77
2022/12/09 09:54:36;;;;;;;60.83;11.20;;;;;;;-0.46;100.00;100769.13;6282285;22;20006;-77
2022/12/09 09:57:22;;;;;;;34.45;10.93;;;;;;;-0.39;100.00;100760.53;6254376;22;20489;-76
2022/12/09 10:00:03;;;;;;;25.55;10.73;;;;;;;-0.35;100.00;100762.06;6281413;22;20020;-76
2022/12/09 10:02:46;;;;;;;28.42;12.05;;;;;;;-0.34;100.00;100755.72;6256607;22;20082;-76
2022/12/09 10:05:28;;;;;;;20.73;11.70;;;;;;;-0.24;100.00;100762.16;6281993;22;20012;-77
2022/12/09 10:08:11;;;;;;;23.35;13.18;;;;;;;-0.15;100.00;100762.59;6255155;22;20023;-76
2022/12/09 10:11:13;;;;;;;25.88;13.25;;;;;;;-0.08;100.00;100767.84;6282172;22;20024;-79
2022/12/09 10:14:00;;;;;;;24.98;13.48;;;;;;;0.05;100.00;100764.91;6281993;22;20016;-77
2022/12/09 10:16:44;;;;;;;28.15;14.75;;;;;;;0.17;100.00;100760.13;6281932;22;20067;-77
2022/12/09 10:19:20;;;;;;;29.08;13.85;;;;;;;0.25;100.00;100764.28;6281712;22;20016;-77
2022/12/09 10:21:49;;;;;;;28.40;14.57;;;;;;;0.32;100.00;100761.69;6281602;22;20081;-76
2022/12/09 10:24:32;;;;;;;35.35;15.15;;;;;;;0.44;100.00;100751.97;6281872;22;20445;-76
2022/12/09 10:27:17;;;;;;;63.92;34.63;;;;;;;0.46;100.00;100752.34;6281330;22;20035;-75
2022/12/09 10:30:09;;;;;;;34.88;17.40;;;;;;;0.45;100.00;100753.47;6281224;22;20016;-76
2022/12/09 10:32:37;;;;;;;27.13;14.50;;;;;;;0.44;100.00;100751.97;6255088;22;20406;-77
2022/12/09 10:35:14;;;;;;;27.25;15.00;;;;;;;0.42;100.00;100749.72;6254165;22;20447;-77
2022/12/09 10:37:41;;;;;;;28.75;16.48;;;;;;;0.48;100.00;100748.25;6281948;22;20022;-77
2022/12/09 10:40:10;;;;;;;30.00;16.52;;;;;;;0.58;100.00;100755.41;6253664;22;20078;-77
2022/12/09 10:45:33;;;;;;;29.80;15.25;;;;;;;0.76;100.00;100752.81;6282155;22;20480;-76
2022/12/09 10:48:36;;;;;;;26.13;15.63;;;;;;;0.79;100.00;100746.09;6281861;22;20099;-77
2022/12/09 10:51:10;;;;;;;29.65;15.35;;;;;;;0.80;100.00;100750.22;6281593;22;20023;-77
2022/12/09 10:53:44;;;;;;;29.20;15.75;;;;;;;0.79;100.00;100753.97;6281598;22;20024;-77
2022/12/09 10:56:19;;;;;;;31.73;16.92;;;;;;;0.78;100.00;100755.81;6281758;22;20501;-77
2022/12/09 10:58:46;;;;;;;34.20;16.67;;;;;;;0.83;100.00;100752.81;6253530;22;20217;-76
2022/12/09 11:01:17;;;;;;;34.38;17.17;;;;;;;0.90;100.00;100752.84;6281225;22;20453;-77
2022/12/09 11:03:49;;;;;;;31.77;16.40;;;;;;;0.98;100.00;100754.34;6281610;22;20016;-75
2022/12/09 11:06:31;;;;;;;33.35;16.70;;;;;;;1.01;100.00;100747.59;6254154;22;20032;-79
2022/12/09 11:09:01;;;;;;;28.73;16.42;;;;;;;1.00;100.00;100748.72;6281446;22;20016;-78
2022/12/09 11:11:43;;;;;;;30.08;15.73;;;;;;;1.02;100.00;100754.34;6281383;22;20024;-77
2022/12/09 11:14:22;;;;;;;32.58;15.90;;;;;;;1.04;100.00;100749.50;6254066;22;20016;-77
2022/12/09 11:16:58;;;;;;;29.52;15.18;;;;;;;1.13;100.00;100738.63;6282716;22;20023;-77
2022/12/09 11:19:34;;;;;;;29.33;15.15;;;;;;;1.22;100.00;100738.97;6281274;22;20099;-79
2022/12/09 11:22:47;;;;;;;30.70;15.70;;;;;;;1.27;100.00;100741.25;6254537;22;20429;-78
2022/12/09 11:25:20;;;;;;;28.38;15.95;;;;;;;1.28;100.00;100742.72;6254397;22;20095;-79
2022/12/09 11:27:52;;;;;;;33.40;16.27;;;;;;;1.33;100.00;100731.88;6254680;22;20115;-78